sensor_id;sensor_type;location;lat;lon;timestamp;temperature;humidity
9179;DHT22;71287;48.414;11.478;2023-11-21T00:00:04;6.90;99.90
9179;DHT22;71287;48.414;11.478;2023-11-21T00:02:37;7.00;99.90
9179;DHT22;71287;48.414;11.478;2023-11-21T00:05:06;6.90;99.90
9179;DHT22;71287;48.414;11.478;2023-11-21T00:07:33;6.90;99.90
9179;DHT22;71287;48.414;11.478;2023-11-21T00:10:00;6.90;99.90
9179;DHT22;71287;48.414;11.478;2023-11-21T00:12:28;7.00;99.90
9179;DHT22;71287;48.414;11.478;2023-11-21T00:14:55;7.00;99.90
9179;DHT22;71287;48.414;11.478;2023-11-21T00:17:22;7.00;99.90
9179;DHT22;71287;48.414;11.478;2023-11-21T00:19:51;7.10;99.90
9179;DHT22;71287;48.414;11.478;2023-11-21T00:22:18;7.10;99.90
9179;DHT22;71287;48.414;11.478;2023-11-21T00:24:45;7.10;99.90
9179;DHT22;71287;48.414;11.478;2023-11-21T00:27:12;7.20;99.90
9179;DHT22;71287;48.414;11.478;2023-11-21T00:29:39;7.20;99.90
9179;DHT22;71287;48.414;11.478;2023-11-21T00:32:07;7.10;99.90
9179;DHT22;71287;48.414;11.478;2023-11-21T00:34:34;7.20;99.90
9179;DHT22;71287;48.414;11.478;2023-11-21T00:37:02;7.20;99.90
9179;DHT22;71287;48.414;11.478;2023-11-21T00:39:29;7.20;99.90
9179;DHT22;71287;48.414;11.478;2023-11-21T00:41:58;7.20;99.90
9179;DHT22;71287;48.414;11.478;2023-11-21T00:44:25;7.30;99.90
9179;DHT22;71287;48.414;11.478;2023-11-21T00:46:51;7.40;99.90
9179;DHT22;71287;48.414;11.478;2023-11-21T00:49:18;7.40;99.90
9179;DHT22;71287;48.414;11.478;2023-11-21T00:51:46;7.40;99.90
9179;DHT22;71287;48.414;11.478;2023-11-21T00:54:14;7.40;99.90
9179;DHT22;71287;48.414;11.478;2023-11-21T00:56:43;7.40;99.90
9179;DHT22;71287;48.414;11.478;2023-11-21T00:59:09;7.50;99.90
9179;DHT22;71287;48.414;11.478;2023-11-21T01:01:36;7.50;99.90
9179;DHT22;71287;48.414;11.478;2023-11-21T01:04:04;7.50;99.90
9179;DHT22;71287;48.414;11.478;2023-11-21T01:06:32;7.60;99.90
9179;DHT22;71287;48.414;11.478;2023-11-21T01:08:58;7.60;99.90
9179;DHT22;71287;48.414;11.478;2023-11-21T01:11:27;7.60;99.90
9179;DHT22;71287;48.414;11.478;2023-11-21T01:13:53;7.60;99.90
9179;DHT22;71287;48.414;11.478;2023-11-21T01:16:20;7.60;99.90
9179;DHT22;71287;48.414;11.478;2023-11-21T01:18:47;7.70;99.90
9179;DHT22;71287;48.414;11.478;2023-11-21T01:21:14;7.70;99.90
9179;DHT22;71287;48.414;11.478;2023-11-21T01:23:40;7.70;99.90
9179;DHT22;71287;48.414;11.478;2023-11-21T01:26:07;7.80;99.90
9179;DHT22;71287;48.414;11.478;2023-11-21T01:28:36;7.80;99.90
9179;DHT22;71287;48.414;11.478;2023-11-21T01:31:02;7.80;99.90
9179;DHT22;71287;48.414;11.478;2023-11-21T01:33:29;7.90;99.90
9179;DHT22;71287;48.414;11.478;2023-11-21T01:35:56;7.90;99.90
9179;DHT22;71287;48.414;11.478;2023-11-21T01:38:23;7.90;99.90
9179;DHT22;71287;48.414;11.478;2023-11-21T01:40:49;8.00;99.90
9179;DHT22;71287;48.414;11.478;2023-11-21T01:43:16;7.90;99.90
9179;DHT22;71287;48.414;11.478;2023-11-21T01:45:44;8.00;99.90
9179;DHT22;71287;48.414;11.478;2023-11-21T01:48:12;8.00;99.90
9179;DHT22;71287;48.414;11.478;2023-11-21T01:50:40;8.00;99.90
9179;DHT22;71287;48.414;11.478;2023-11-21T01:53:07;8.00;99.90
9179;DHT22;71287;48.414;11.478;2023-11-21T01:55:34;8.10;99.90
9179;DHT22;71287;48.414;11.478;2023-11-21T01:58:01;8.10;99.90
9179;DHT22;71287;48.414;11.478;2023-11-21T02:00:28;8.10;99.90
9179;DHT22;71287;48.414;11.478;2023-11-21T02:02:56;8.10;99.90
9179;DHT22;71287;48.414;11.478;2023-11-21T02:05:23;8.10;99.90
9179;DHT22;71287;48.414;11.478;2023-11-21T02:07:51;8.20;99.90
9179;DHT22;71287;48.414;11.478;2023-11-21T02:10:18;8.20;99.90
9179;DHT22;71287;48.414;11.478;2023-11-21T02:12:48;8.20;99.90
9179;DHT22;71287;48.414;11.478;2023-11-21T02:15:16;8.20;99.90
9179;DHT22;71287;48.414;11.478;2023-11-21T02:17:46;8.20;99.90
9179;DHT22;71287;48.414;11.478;2023-11-21T02:20:18;8.20;99.90
9179;DHT22;71287;48.414;11.478;2023-11-21T02:22:50;8.20;99.90
9179;DHT22;71287;48.414;11.478;2023-11-21T02:25:18;8.20;99.90
9179;DHT22;71287;48.414;11.478;2023-11-21T02:27:45;8.30;99.90
9179;DHT22;71287;48.414;11.478;2023-11-21T02:30:14;8.30;99.90
9179;DHT22;71287;48.414;11.478;2023-11-21T02:32:41;8.30;99.90
9179;DHT22;71287;48.414;11.478;2023-11-21T02:35:09;8.20;99.90
9179;DHT22;71287;48.414;11.478;2023-11-21T02:37:37;8.20;99.90
9179;DHT22;71287;48.414;11.478;2023-11-21T02:40:08;8.30;99.90
9179;DHT22;71287;48.414;11.478;2023-11-21T02:42:38;8.20;99.90
9179;DHT22;71287;48.414;11.478;2023-11-21T02:45:06;8.20;99.90
9179;DHT22;71287;48.414;11.478;2023-11-21T02:47:33;8.30;99.90
9179;DHT22;71287;48.414;11.478;2023-11-21T02:50:00;8.30;99.90
9179;DHT22;71287;48.414;11.478;2023-11-21T02:52:26;8.30;99.90
9179;DHT22;71287;48.414;11.478;2023-11-21T02:54:53;8.30;99.90
9179;DHT22;71287;48.414;11.478;2023-11-21T02:57:21;8.30;99.90
9179;DHT22;71287;48.414;11.478;2023-11-21T02:59:48;8.30;99.90
9179;DHT22;71287;48.414;11.478;2023-11-21T03:02:15;8.30;99.90
9179;DHT22;71287;48.414;11.478;2023-11-21T03:04:42;8.20;99.90
9179;DHT22;71287;48.414;11.478;2023-11-21T03:07:09;8.20;99.90
9179;DHT22;71287;48.414;11.478;2023-11-21T03:09:36;8.20;99.90
9179;DHT22;71287;48.414;11.478;2023-11-21T03:12:04;8.20;99.90
9179;DHT22;71287;48.414;11.478;2023-11-21T03:14:32;8.20;99.90
9179;DHT22;71287;48.414;11.478;2023-11-21T03:16:59;8.20;99.90
9179;DHT22;71287;48.414;11.478;2023-11-21T03:19:25;8.20;99.90
9179;DHT22;71287;48.414;11.478;2023-11-21T03:21:52;8.20;99.90
9179;DHT22;71287;48.414;11.478;2023-11-21T03:24:19;8.30;99.90
9179;DHT22;71287;48.414;11.478;2023-11-21T03:26:48;8.20;99.90
9179;DHT22;71287;48.414;11.478;2023-11-21T03:29:14;8.30;99.90
9179;DHT22;71287;48.414;11.478;2023-11-21T03:31:42;8.20;99.90
9179;DHT22;71287;48.414;11.478;2023-11-21T03:34:14;8.30;99.90
9179;DHT22;71287;48.414;11.478;2023-11-21T03:36:41;8.20;99.90
9179;DHT22;71287;48.414;11.478;2023-11-21T03:39:08;8.20;99.90
9179;DHT22;71287;48.414;11.478;2023-11-21T03:41:34;8.20;99.90
9179;DHT22;71287;48.414;11.478;2023-11-21T03:44:01;8.20;99.90
9179;DHT22;71287;48.414;11.478;2023-11-21T03:46:28;8.10;99.90
9179;DHT22;71287;48.414;11.478;2023-11-21T03:48:56;8.10;99.90
9179;DHT22;71287;48.414;11.478;2023-11-21T03:51:23;8.00;99.90
9179;DHT22;71287;48.414;11.478;2023-11-21T03:53:50;8.00;99.90
9179;DHT22;71287;48.414;11.478;2023-11-21T03:56:17;8.00;99.90
9179;DHT22;71287;48.414;11.478;2023-11-21T03:58:43;8.00;99.90
9179;DHT22;71287;48.414;11.478;2023-11-21T04:01:10;8.00;99.90
9179;DHT22;71287;48.414;11.478;2023-11-21T04:03:37;7.90;99.90
9179;DHT22;71287;48.414;11.478;2023-11-21T04:06:08;7.90;99.90
9179;DHT22;71287;48.414;11.478;2023-11-21T04:08:35;7.90;99.90
9179;DHT22;71287;48.414;11.478;2023-11-21T04:11:02;7.80;99.90
9179;DHT22;71287;48.414;11.478;2023-11-21T04:13:29;7.80;99.90
9179;DHT22;71287;48.414;11.478;2023-11-21T04:15:56;7.80;99.90
9179;DHT22;71287;48.414;11.478;2023-11-21T04:18:23;7.80;99.90
9179;DHT22;71287;48.414;11.478;2023-11-21T04:20:50;7.70;99.90
9179;DHT22;71287;48.414;11.478;2023-11-21T04:23:18;7.70;99.90
9179;DHT22;71287;48.414;11.478;2023-11-21T04:25:45;7.70;99.90
9179;DHT22;71287;48.414;11.478;2023-11-21T04:28:12;7.60;99.90
9179;DHT22;71287;48.414;11.478;2023-11-21T04:30:38;7.60;99.90
9179;DHT22;71287;48.414;11.478;2023-11-21T04:33:06;7.50;99.90
9179;DHT22;71287;48.414;11.478;2023-11-21T04:35:33;7.50;99.90
9179;DHT22;71287;48.414;11.478;2023-11-21T04:38:00;7.50;99.90
9179;DHT22;71287;48.414;11.478;2023-11-21T04:40:28;7.50;99.90
9179;DHT22;71287;48.414;11.478;2023-11-21T04:42:55;7.50;99.90
9179;DHT22;71287;48.414;11.478;2023-11-21T04:45:22;7.40;99.90
9179;DHT22;71287;48.414;11.478;2023-11-21T04:47:49;7.40;99.90
9179;DHT22;71287;48.414;11.478;2023-11-21T04:50:16;7.40;99.90
9179;DHT22;71287;48.414;11.478;2023-11-21T04:52:43;7.40;99.90
9179;DHT22;71287;48.414;11.478;2023-11-21T04:55:10;7.30;99.90
9179;DHT22;71287;48.414;11.478;2023-11-21T04:57:38;7.30;99.90
9179;DHT22;71287;48.414;11.478;2023-11-21T05:00:08;7.30;99.90
9179;DHT22;71287;48.414;11.478;2023-11-21T05:02:35;7.30;99.90
9179;DHT22;71287;48.414;11.478;2023-11-21T05:05:04;7.30;99.90
9179;DHT22;71287;48.414;11.478;2023-11-21T05:07:31;7.20;99.90
9179;DHT22;71287;48.414;11.478;2023-11-21T05:10:00;7.20;99.90
9179;DHT22;71287;48.414;11.478;2023-11-21T05:12:31;7.20;99.90
9179;DHT22;71287;48.414;11.478;2023-11-21T05:15:01;7.20;99.90
9179;DHT22;71287;48.414;11.478;2023-11-21T05:17:33;7.10;99.90
9179;DHT22;71287;48.414;11.478;2023-11-21T05:19:59;7.10;99.90
9179;DHT22;71287;48.414;11.478;2023-11-21T05:22:27;7.10;99.90
9179;DHT22;71287;48.414;11.478;2023-11-21T05:24:54;7.10;99.90
9179;DHT22;71287;48.414;11.478;2023-11-21T05:27:21;7.10;99.90
9179;DHT22;71287;48.414;11.478;2023-11-21T05:29:47;7.10;99.90
9179;DHT22;71287;48.414;11.478;2023-11-21T05:32:15;7.10;99.90
9179;DHT22;71287;48.414;11.478;2023-11-21T05:34:43;7.10;99.90
9179;DHT22;71287;48.414;11.478;2023-11-21T05:37:09;7.10;99.90
9179;DHT22;71287;48.414;11.478;2023-11-21T05:39:36;7.10;99.90
9179;DHT22;71287;48.414;11.478;2023-11-21T05:42:03;7.10;99.90
9179;DHT22;71287;48.414;11.478;2023-11-21T05:44:30;7.10;99.90
9179;DHT22;71287;48.414;11.478;2023-11-21T05:46:57;7.10;99.90
9179;DHT22;71287;48.414;11.478;2023-11-21T05:49:25;7.00;99.90
9179;DHT22;71287;48.414;11.478;2023-11-21T05:51:53;7.00;99.90
9179;DHT22;71287;48.414;11.478;2023-11-21T05:54:20;6.90;99.90
9179;DHT22;71287;48.414;11.478;2023-11-21T05:56:47;6.90;99.90
9179;DHT22;71287;48.414;11.478;2023-11-21T05:59:14;7.00;99.90
9179;DHT22;71287;48.414;11.478;2023-11-21T06:01:41;7.00;99.90
9179;DHT22;71287;48.414;11.478;2023-11-21T06:04:08;7.00;99.90
9179;DHT22;71287;48.414;11.478;2023-11-21T06:06:36;7.00;99.90
9179;DHT22;71287;48.414;11.478;2023-11-21T06:09:03;7.00;99.90
9179;DHT22;71287;48.414;11.478;2023-11-21T06:11:31;7.00;99.90
9179;DHT22;71287;48.414;11.478;2023-11-21T06:13:58;7.00;99.90
9179;DHT22;71287;48.414;11.478;2023-11-21T06:16:24;7.10;99.90
9179;DHT22;71287;48.414;11.478;2023-11-21T06:18:51;7.00;99.90
9179;DHT22;71287;48.414;11.478;2023-11-21T06:21:18;7.10;99.90
9179;DHT22;71287;48.414;11.478;2023-11-21T06:23:46;7.10;99.90
9179;DHT22;71287;48.414;11.478;2023-11-21T06:26:13;7.10;99.90
9179;DHT22;71287;48.414;11.478;2023-11-21T06:28:39;7.10;99.90
9179;DHT22;71287;48.414;11.478;2023-11-21T06:31:06;7.00;99.90
9179;DHT22;71287;48.414;11.478;2023-11-21T06:33:33;7.00;99.90
9179;DHT22;71287;48.414;11.478;2023-11-21T06:36:00;7.00;99.90
9179;DHT22;71287;48.414;11.478;2023-11-21T06:38:28;7.00;99.90
9179;DHT22;71287;48.414;11.478;2023-11-21T06:40:56;7.00;99.90
9179;DHT22;71287;48.414;11.478;2023-11-21T06:43:23;7.00;99.90
9179;DHT22;71287;48.414;11.478;2023-11-21T06:45:50;7.00;99.90
9179;DHT22;71287;48.414;11.478;2023-11-21T06:48:17;6.90;99.90
9179;DHT22;71287;48.414;11.478;2023-11-21T06:50:44;6.90;99.90
9179;DHT22;71287;48.414;11.478;2023-11-21T06:53:12;6.90;99.90
9179;DHT22;71287;48.414;11.478;2023-11-21T06:55:39;6.90;99.90
9179;DHT22;71287;48.414;11.478;2023-11-21T06:58:07;6.90;99.90
9179;DHT22;71287;48.414;11.478;2023-11-21T07:00:34;6.90;99.90
9179;DHT22;71287;48.414;11.478;2023-11-21T07:03:00;7.00;99.90
9179;DHT22;71287;48.414;11.478;2023-11-21T07:05:27;7.00;99.90
9179;DHT22;71287;48.414;11.478;2023-11-21T07:07:54;7.00;99.90
9179;DHT22;71287;48.414;11.478;2023-11-21T07:10:21;7.10;99.90
9179;DHT22;71287;48.414;11.478;2023-11-21T07:12:47;7.30;99.90
9179;DHT22;71287;48.414;11.478;2023-11-21T07:15:16;7.40;99.90
9179;DHT22;71287;48.414;11.478;2023-11-21T07:17:44;7.50;99.90
9179;DHT22;71287;48.414;11.478;2023-11-21T07:20:12;7.70;99.90
9179;DHT22;71287;48.414;11.478;2023-11-21T07:22:39;7.70;99.90
9179;DHT22;71287;48.414;11.478;2023-11-21T07:25:06;7.80;99.90
9179;DHT22;71287;48.414;11.478;2023-11-21T07:27:35;7.90;99.90
9179;DHT22;71287;48.414;11.478;2023-11-21T07:30:03;7.90;99.90
9179;DHT22;71287;48.414;11.478;2023-11-21T07:32:33;7.90;99.90
9179;DHT22;71287;48.414;11.478;2023-11-21T07:34:59;7.90;99.90
9179;DHT22;71287;48.414;11.478;2023-11-21T07:37:26;7.90;99.90
9179;DHT22;71287;48.414;11.478;2023-11-21T07:39:54;8.00;99.90
9179;DHT22;71287;48.414;11.478;2023-11-21T07:42:22;8.00;99.90
9179;DHT22;71287;48.414;11.478;2023-11-21T07:44:48;8.10;99.90
9179;DHT22;71287;48.414;11.478;2023-11-21T07:47:15;8.20;99.90
9179;DHT22;71287;48.414;11.478;2023-11-21T07:49:43;8.20;99.90
9179;DHT22;71287;48.414;11.478;2023-11-21T07:52:12;8.30;99.90
9179;DHT22;71287;48.414;11.478;2023-11-21T07:54:41;8.40;99.90
9179;DHT22;71287;48.414;11.478;2023-11-21T07:57:08;8.40;99.90
9179;DHT22;71287;48.414;11.478;2023-11-21T07:59:38;8.40;99.90
9179;DHT22;71287;48.414;11.478;2023-11-21T08:02:06;8.50;99.90
9179;DHT22;71287;48.414;11.478;2023-11-21T08:04:33;8.60;99.90
9179;DHT22;71287;48.414;11.478;2023-11-21T08:07:01;8.70;99.90
9179;DHT22;71287;48.414;11.478;2023-11-21T08:09:29;8.80;99.90
9179;DHT22;71287;48.414;11.478;2023-11-21T08:11:56;8.80;99.90
9179;DHT22;71287;48.414;11.478;2023-11-21T08:14:23;8.90;99.90
9179;DHT22;71287;48.414;11.478;2023-11-21T08:16:51;9.00;99.90
9179;DHT22;71287;48.414;11.478;2023-11-21T08:19:17;9.00;99.90
9179;DHT22;71287;48.414;11.478;2023-11-21T08:21:44;9.00;99.90
9179;DHT22;71287;48.414;11.478;2023-11-21T08:24:12;9.10;99.90
9179;DHT22;71287;48.414;11.478;2023-11-21T08:26:39;9.10;99.90
9179;DHT22;71287;48.414;11.478;2023-11-21T08:29:06;9.20;99.90
9179;DHT22;71287;48.414;11.478;2023-11-21T08:31:34;9.40;99.90
9179;DHT22;71287;48.414;11.478;2023-11-21T08:34:01;9.50;99.90
9179;DHT22;71287;48.414;11.478;2023-11-21T08:36:28;9.70;99.90
9179;DHT22;71287;48.414;11.478;2023-11-21T08:38:54;9.80;99.90
9179;DHT22;71287;48.414;11.478;2023-11-21T08:41:22;9.90;99.90
9179;DHT22;71287;48.414;11.478;2023-11-21T08:43:50;10.00;99.90
9179;DHT22;71287;48.414;11.478;2023-11-21T08:46:17;10.10;99.90
9179;DHT22;71287;48.414;11.478;2023-11-21T08:48:44;10.30;99.90
9179;DHT22;71287;48.414;11.478;2023-11-21T08:51:12;10.30;99.90
9179;DHT22;71287;48.414;11.478;2023-11-21T08:53:39;10.40;99.90
9179;DHT22;71287;48.414;11.478;2023-11-21T08:56:07;10.50;99.90
9179;DHT22;71287;48.414;11.478;2023-11-21T08:58:36;10.70;99.90
9179;DHT22;71287;48.414;11.478;2023-11-21T09:01:04;10.90;99.90
9179;DHT22;71287;48.414;11.478;2023-11-21T09:03:31;11.20;99.90
9179;DHT22;71287;48.414;11.478;2023-11-21T09:05:59;11.50;99.90
9179;DHT22;71287;48.414;11.478;2023-11-21T09:08:26;11.80;99.90
9179;DHT22;71287;48.414;11.478;2023-11-21T09:10:55;12.10;99.90
9179;DHT22;71287;48.414;11.478;2023-11-21T09:13:21;12.30;99.90
9179;DHT22;71287;48.414;11.478;2023-11-21T09:15:51;12.30;99.90
9179;DHT22;71287;48.414;11.478;2023-11-21T09:18:18;12.50;99.90
9179;DHT22;71287;48.414;11.478;2023-11-21T09:20:45;12.70;99.90
9179;DHT22;71287;48.414;11.478;2023-11-21T09:23:12;12.70;99.90
9179;DHT22;71287;48.414;11.478;2023-11-21T09:25:39;12.60;99.90
9179;DHT22;71287;48.414;11.478;2023-11-21T09:28:06;12.50;99.90
9179;DHT22;71287;48.414;11.478;2023-11-21T09:30:34;12.60;99.90
9179;DHT22;71287;48.414;11.478;2023-11-21T09:33:02;12.80;99.90
9179;DHT22;71287;48.414;11.478;2023-11-21T09:35:30;13.00;99.90
9179;DHT22;71287;48.414;11.478;2023-11-21T09:37:57;13.20;99.90
9179;DHT22;71287;48.414;11.478;2023-11-21T09:40:24;13.30;99.90
9179;DHT22;71287;48.414;11.478;2023-11-21T09:42:54;13.20;99.90
9179;DHT22;71287;48.414;11.478;2023-11-21T09:45:25;13.10;99.90
9179;DHT22;71287;48.414;11.478;2023-11-21T09:47:53;13.10;99.90
9179;DHT22;71287;48.414;11.478;2023-11-21T09:50:23;13.10;99.90
9179;DHT22;71287;48.414;11.478;2023-11-21T09:52:57;13.20;99.90
9179;DHT22;71287;48.414;11.478;2023-11-21T09:55:27;13.30;99.90
9179;DHT22;71287;48.414;11.478;2023-11-21T09:57:56;13.40;99.90
9179;DHT22;71287;48.414;11.478;2023-11-21T10:00:23;13.30;99.90
9179;DHT22;71287;48.414;11.478;2023-11-21T10:02:51;13.30;99.90
9179;DHT22;71287;48.414;11.478;2023-11-21T10:05:18;13.30;99.90
9179;DHT22;71287;48.414;11.478;2023-11-21T10:07:47;13.50;99.90
9179;DHT22;71287;48.414;11.478;2023-11-21T10:10:18;13.70;99.90
9179;DHT22;71287;48.414;11.478;2023-11-21T10:12:49;13.80;99.90
9179;DHT22;71287;48.414;11.478;2023-11-21T10:15:16;13.80;99.90
9179;DHT22;71287;48.414;11.478;2023-11-21T10:17:44;13.80;99.90
9179;DHT22;71287;48.414;11.478;2023-11-21T10:20:12;13.80;99.90
9179;DHT22;71287;48.414;11.478;2023-11-21T10:22:40;13.70;99.90
9179;DHT22;71287;48.414;11.478;2023-11-21T10:25:09;13.60;99.90
9179;DHT22;71287;48.414;11.478;2023-11-21T10:27:36;13.40;99.90
9179;DHT22;71287;48.414;11.478;2023-11-21T10:30:05;13.30;99.90
9179;DHT22;71287;48.414;11.478;2023-11-21T10:32:33;13.20;99.90
9179;DHT22;71287;48.414;11.478;2023-11-21T10:35:00;13.10;99.90
9179;DHT22;71287;48.414;11.478;2023-11-21T10:37:32;13.10;99.90
9179;DHT22;71287;48.414;11.478;2023-11-21T10:39:58;13.10;99.90
9179;DHT22;71287;48.414;11.478;2023-11-21T10:42:26;13.00;99.90
9179;DHT22;71287;48.414;11.478;2023-11-21T10:44:55;13.00;99.90
9179;DHT22;71287;48.414;11.478;2023-11-21T10:47:22;12.80;99.90
9179;DHT22;71287;48.414;11.478;2023-11-21T10:49:49;12.70;99.90
9179;DHT22;71287;48.414;11.478;2023-11-21T10:52:18;12.60;99.90
9179;DHT22;71287;48.414;11.478;2023-11-21T10:54:46;12.50;99.90
9179;DHT22;71287;48.414;11.478;2023-11-21T10:57:17;12.40;99.90
9179;DHT22;71287;48.414;11.478;2023-11-21T10:59:47;12.40;99.90
9179;DHT22;71287;48.414;11.478;2023-11-21T11:02:23;12.30;99.90
9179;DHT22;71287;48.414;11.478;2023-11-21T11:04:52;12.10;99.90
9179;DHT22;71287;48.414;11.478;2023-11-21T11:07:22;12.10;99.90
9179;DHT22;71287;48.414;11.478;2023-11-21T11:09:52;12.10;99.90
9179;DHT22;71287;48.414;11.478;2023-11-21T11:12:19;12.10;99.90
9179;DHT22;71287;48.414;11.478;2023-11-21T11:14:48;12.20;99.90
9179;DHT22;71287;48.414;11.478;2023-11-21T11:17:15;12.20;99.90
9179;DHT22;71287;48.414;11.478;2023-11-21T11:19:42;12.30;99.90
9179;DHT22;71287;48.414;11.478;2023-11-21T11:22:21;12.30;99.90
9179;DHT22;71287;48.414;11.478;2023-11-21T11:25:08;12.40;99.90
9179;DHT22;71287;48.414;11.478;2023-11-21T11:27:48;12.40;99.90
9179;DHT22;71287;48.414;11.478;2023-11-21T11:30:27;12.70;99.90
9179;DHT22;71287;48.414;11.478;2023-11-21T11:33:10;13.00;99.90
9179;DHT22;71287;48.414;11.478;2023-11-21T11:35:49;13.20;99.90
9179;DHT22;71287;48.414;11.478;2023-11-21T11:38:21;13.20;99.90
9179;DHT22;71287;48.414;11.478;2023-11-21T11:40:47;13.20;99.90
9179;DHT22;71287;48.414;11.478;2023-11-21T11:43:24;13.10;99.90
9179;DHT22;71287;48.414;11.478;2023-11-21T11:45:55;13.10;99.90
9179;DHT22;71287;48.414;11.478;2023-11-21T11:48:22;13.10;99.90
9179;DHT22;71287;48.414;11.478;2023-11-21T11:51:09;13.20;99.90
9179;DHT22;71287;48.414;11.478;2023-11-21T11:53:39;13.20;99.90
9179;DHT22;71287;48.414;11.478;2023-11-21T11:56:23;13.10;99.90
9179;DHT22;71287;48.414;11.478;2023-11-21T11:58:52;13.00;99.90
9179;DHT22;71287;48.414;11.478;2023-11-21T12:01:20;13.00;99.90
9179;DHT22;71287;48.414;11.478;2023-11-21T12:07:13;12.80;99.90
9179;DHT22;71287;48.414;11.478;2023-11-21T12:09:40;12.60;99.90
9179;DHT22;71287;48.414;11.478;2023-11-21T12:12:08;12.60;99.90
9179;DHT22;71287;48.414;11.478;2023-11-21T12:14:36;12.50;99.90
9179;DHT22;71287;48.414;11.478;2023-11-21T12:17:04;12.50;99.90
9179;DHT22;71287;48.414;11.478;2023-11-21T12:19:31;12.50;99.90
9179;DHT22;71287;48.414;11.478;2023-11-21T12:21:59;12.50;99.90
9179;DHT22;71287;48.414;11.478;2023-11-21T12:24:26;12.50;99.90
9179;DHT22;71287;48.414;11.478;2023-11-21T12:26:54;12.50;99.90
9179;DHT22;71287;48.414;11.478;2023-11-21T12:29:21;12.40;99.90
9179;DHT22;71287;48.414;11.478;2023-11-21T12:31:49;12.40;99.90
9179;DHT22;71287;48.414;11.478;2023-11-21T12:34:17;12.40;99.90
9179;DHT22;71287;48.414;11.478;2023-11-21T12:36:44;12.50;99.90
9179;DHT22;71287;48.414;11.478;2023-11-21T12:39:12;12.50;99.90
9179;DHT22;71287;48.414;11.478;2023-11-21T12:41:40;12.40;99.90
9179;DHT22;71287;48.414;11.478;2023-11-21T12:44:12;12.40;99.90
9179;DHT22;71287;48.414;11.478;2023-11-21T12:46:42;12.30;99.90
9179;DHT22;71287;48.414;11.478;2023-11-21T12:49:10;12.20;99.90
9179;DHT22;71287;48.414;11.478;2023-11-21T12:51:44;12.10;99.90
9179;DHT22;71287;48.414;11.478;2023-11-21T12:54:12;12.10;99.90
9179;DHT22;71287;48.414;11.478;2023-11-21T12:56:39;12.00;99.90
9179;DHT22;71287;48.414;11.478;2023-11-21T12:59:06;11.90;99.90
9179;DHT22;71287;48.414;11.478;2023-11-21T13:01:34;11.80;99.90
9179;DHT22;71287;48.414;11.478;2023-11-21T13:04:03;11.70;99.90
9179;DHT22;71287;48.414;11.478;2023-11-21T13:06:36;11.70;99.90
9179;DHT22;71287;48.414;11.478;2023-11-21T13:09:08;11.70;99.90
9179;DHT22;71287;48.414;11.478;2023-11-21T13:11:36;11.70;99.90
9179;DHT22;71287;48.414;11.478;2023-11-21T13:14:06;11.60;99.90
9179;DHT22;71287;48.414;11.478;2023-11-21T13:16:33;11.60;99.90
9179;DHT22;71287;48.414;11.478;2023-11-21T13:18:59;11.50;99.90
9179;DHT22;71287;48.414;11.478;2023-11-21T13:21:26;11.50;99.90
9179;DHT22;71287;48.414;11.478;2023-11-21T13:23:53;11.40;99.90
9179;DHT22;71287;48.414;11.478;2023-11-21T13:26:21;11.30;99.90
9179;DHT22;71287;48.414;11.478;2023-11-21T13:28:49;11.30;99.90
9179;DHT22;71287;48.414;11.478;2023-11-21T13:31:16;11.30;99.90
9179;DHT22;71287;48.414;11.478;2023-11-21T13:33:51;11.20;99.90
9179;DHT22;71287;48.414;11.478;2023-11-21T13:36:21;11.30;99.90
9179;DHT22;71287;48.414;11.478;2023-11-21T13:38:49;11.30;99.90
9179;DHT22;71287;48.414;11.478;2023-11-21T13:41:16;11.40;99.90
9179;DHT22;71287;48.414;11.478;2023-11-21T13:43:45;11.40;99.90
9179;DHT22;71287;48.414;11.478;2023-11-21T13:46:24;11.50;99.90
9179;DHT22;71287;48.414;11.478;2023-11-21T13:48:51;11.50;99.90
9179;DHT22;71287;48.414;11.478;2023-11-21T13:51:21;11.50;99.90
9179;DHT22;71287;48.414;11.478;2023-11-21T13:53:56;11.60;99.90
9179;DHT22;71287;48.414;11.478;2023-11-21T13:56:24;11.60;99.90
9179;DHT22;71287;48.414;11.478;2023-11-21T13:58:55;11.70;99.90
9179;DHT22;71287;48.414;11.478;2023-11-21T14:01:23;11.70;99.90
9179;DHT22;71287;48.414;11.478;2023-11-21T14:04:10;11.70;99.90
9179;DHT22;71287;48.414;11.478;2023-11-21T14:06:46;11.70;99.90
9179;DHT22;71287;48.414;11.478;2023-11-21T14:09:14;11.80;99.90
9179;DHT22;71287;48.414;11.478;2023-11-21T14:11:49;11.80;99.90
9179;DHT22;71287;48.414;11.478;2023-11-21T14:14:18;11.80;99.90
9179;DHT22;71287;48.414;11.478;2023-11-21T14:16:45;11.70;99.90
9179;DHT22;71287;48.414;11.478;2023-11-21T14:19:12;11.60;99.90
9179;DHT22;71287;48.414;11.478;2023-11-21T14:21:42;11.60;99.90
9179;DHT22;71287;48.414;11.478;2023-11-21T14:24:09;11.40;99.90
9179;DHT22;71287;48.414;11.478;2023-11-21T14:26:39;11.30;99.90
9179;DHT22;71287;48.414;11.478;2023-11-21T14:29:06;11.10;99.90
9179;DHT22;71287;48.414;11.478;2023-11-21T14:31:35;10.90;99.90
9179;DHT22;71287;48.414;11.478;2023-11-21T14:34:02;10.70;99.90
9179;DHT22;71287;48.414;11.478;2023-11-21T14:36:31;10.60;99.90
9179;DHT22;71287;48.414;11.478;2023-11-21T14:38:58;10.50;99.90
9179;DHT22;71287;48.414;11.478;2023-11-21T14:41:25;10.40;99.90
9179;DHT22;71287;48.414;11.478;2023-11-21T14:43:53;10.30;99.90
9179;DHT22;71287;48.414;11.478;2023-11-21T14:46:22;10.20;99.90
9179;DHT22;71287;48.414;11.478;2023-11-21T14:48:50;10.20;99.90
9179;DHT22;71287;48.414;11.478;2023-11-21T14:51:25;10.10;99.90
9179;DHT22;71287;48.414;11.478;2023-11-21T14:53:53;10.10;99.90
9179;DHT22;71287;48.414;11.478;2023-11-21T14:56:20;10.10;99.90
9179;DHT22;71287;48.414;11.478;2023-11-21T14:58:52;10.00;99.90
9179;DHT22;71287;48.414;11.478;2023-11-21T15:01:21;9.90;99.90
9179;DHT22;71287;48.414;11.478;2023-11-21T15:04:01;9.90;99.90
9179;DHT22;71287;48.414;11.478;2023-11-21T15:06:29;9.90;99.90
9179;DHT22;71287;48.414;11.478;2023-11-21T15:08:56;9.80;99.90
9179;DHT22;71287;48.414;11.478;2023-11-21T15:11:54;9.80;99.90
9179;DHT22;71287;48.414;11.478;2023-11-21T15:14:29;9.70;99.90
9179;DHT22;71287;48.414;11.478;2023-11-21T15:16:57;9.70;99.90
9179;DHT22;71287;48.414;11.478;2023-11-21T15:19:27;9.60;99.90
9179;DHT22;71287;48.414;11.478;2023-11-21T15:21:54;9.60;99.90
9179;DHT22;71287;48.414;11.478;2023-11-21T15:24:21;9.50;99.90
9179;DHT22;71287;48.414;11.478;2023-11-21T15:26:48;9.50;99.90
9179;DHT22;71287;48.414;11.478;2023-11-21T15:29:15;9.50;99.90
9179;DHT22;71287;48.414;11.478;2023-11-21T15:31:42;9.50;99.90
9179;DHT22;71287;48.414;11.478;2023-11-21T15:34:13;9.50;99.90
9179;DHT22;71287;48.414;11.478;2023-11-21T15:36:42;9.40;99.90
9179;DHT22;71287;48.414;11.478;2023-11-21T15:39:09;9.40;99.90
9179;DHT22;71287;48.414;11.478;2023-11-21T15:44:18;9.30;99.90
9179;DHT22;71287;48.414;11.478;2023-11-21T15:46:45;9.30;99.90
9179;DHT22;71287;48.414;11.478;2023-11-21T15:49:13;9.30;99.90
9179;DHT22;71287;48.414;11.478;2023-11-21T15:51:45;9.60;99.90